createdAt,value
2022-08-29T00:00:17.858Z,57.17
2022-08-29T00:02:46.950Z,56.97
2022-08-29T00:05:14.557Z,57.24
2022-08-29T00:07:42.168Z,57.00
2022-08-29T00:10:09.938Z,57.18
2022-08-29T00:12:39.006Z,57.35
2022-08-29T00:15:08.050Z,57.28
2022-08-29T00:17:35.692Z,57.12
2022-08-29T00:20:04.237Z,57.41
2022-08-29T00:22:31.961Z,57.23
2022-08-29T00:25:03.174Z,57.08
2022-08-29T00:27:30.808Z,57.19
2022-08-29T00:29:59.829Z,57.11
2022-08-29T00:32:34.558Z,57.15
2022-08-29T00:35:02.269Z,57.27
2022-08-29T00:37:29.889Z,57.21
2022-08-29T00:39:57.596Z,57.05
2022-08-29T00:42:25.428Z,57.16
2022-08-29T00:44:53.130Z,57.19
2022-08-29T00:47:32.951Z,56.88
2022-08-29T00:50:00.570Z,57.10
2022-08-29T00:52:30.520Z,57.21
2022-08-29T00:54:58.254Z,57.24
2022-08-29T00:57:26.066Z,57.21
2022-08-29T00:59:53.829Z,57.11
2022-08-29T01:02:22.857Z,57.13
2022-08-29T01:04:50.512Z,56.94
2022-08-29T01:07:18.085Z,57.08
2022-08-29T01:09:46.988Z,57.08
2022-08-29T01:12:16.371Z,56.74
2022-08-29T01:14:47.854Z,56.77
2022-08-29T01:17:17.955Z,56.77
2022-08-29T01:19:50.207Z,56.63
2022-08-29T01:22:35.624Z,56.83
2022-08-29T01:25:05.467Z,56.76
2022-08-29T01:27:34.291Z,56.86
2022-08-29T01:30:01.912Z,56.83
2022-08-29T01:32:29.720Z,56.72
2022-08-29T01:34:57.376Z,56.72
2022-08-29T01:37:24.977Z,56.72
2022-08-29T01:39:52.590Z,56.71
2022-08-29T01:42:22.749Z,56.53
2022-08-29T01:44:50.803Z,56.72
2022-08-29T01:47:20.272Z,56.46
2022-08-29T01:49:47.971Z,56.44
2022-08-29T01:52:15.569Z,56.38
2022-08-29T01:54:45.975Z,56.21
2022-08-29T01:57:13.847Z,56.22
2022-08-29T01:59:42.981Z,56.08
2022-08-29T02:02:12.717Z,56.36
2022-08-29T02:04:40.775Z,56.05
2022-08-29T02:07:12.520Z,55.94
2022-08-29T02:09:40.584Z,55.90
2022-08-29T02:12:13.711Z,55.75
2022-08-29T02:14:42.729Z,55.80
2022-08-29T02:17:10.381Z,55.68
2022-08-29T02:19:38.805Z,55.65
2022-08-29T02:22:06.578Z,55.89
2022-08-29T02:24:34.289Z,55.70
2022-08-29T02:27:01.903Z,55.79
2022-08-29T02:29:34.259Z,55.71
2022-08-29T02:32:07.212Z,55.74
2022-08-29T02:34:35.891Z,55.77
2022-08-29T02:37:04.688Z,56.02
2022-08-29T02:39:33.889Z,56.02
2022-08-29T02:42:01.543Z,55.90
2022-08-29T02:44:29.245Z,55.89
2022-08-29T02:46:56.918Z,56.01
2022-08-29T02:49:26.017Z,55.94
2022-08-29T02:51:53.621Z,55.97
2022-08-29T02:54:21.232Z,55.97
2022-08-29T02:56:48.961Z,55.71
2022-08-29T02:59:16.576Z,55.91
2022-08-29T03:01:44.250Z,55.97
2022-08-29T03:04:11.892Z,55.67
2022-08-29T03:06:41.044Z,55.91
2022-08-29T03:09:08.644Z,55.68
2022-08-29T03:11:36.270Z,55.77
2022-08-29T03:14:03.893Z,55.70
2022-08-29T03:16:31.920Z,55.75
2022-08-29T03:18:59.566Z,55.74
2022-08-29T03:21:27.616Z,55.62
2022-08-29T03:23:56.717Z,55.77
2022-08-29T03:26:24.641Z,55.51
2022-08-29T03:28:52.271Z,55.48
2022-08-29T03:31:19.940Z,55.68
2022-08-29T03:33:47.514Z,55.67
2022-08-29T03:36:15.154Z,55.62
2022-08-29T03:38:43.341Z,55.72
2022-08-29T03:41:12.644Z,55.59
2022-08-29T03:43:40.300Z,55.76
2022-08-29T03:46:08.001Z,55.77
2022-08-29T03:48:35.683Z,55.78
2022-08-29T03:51:03.874Z,55.77
2022-08-29T03:53:32.857Z,55.75
2022-08-29T03:56:00.466Z,55.99
2022-08-29T03:58:29.578Z,55.87
2022-08-29T04:00:57.184Z,56.03
2022-08-29T04:03:24.924Z,55.98
2022-08-29T04:05:58.797Z,55.76
2022-08-29T04:08:26.367Z,55.83
2022-08-29T04:10:53.985Z,55.66
2022-08-29T04:13:21.878Z,55.58
2022-08-29T04:15:50.991Z,55.65
2022-08-29T04:18:21.661Z,55.38
2022-08-29T04:20:50.181Z,55.17
2022-08-29T04:23:17.856Z,55.29
2022-08-29T04:25:45.491Z,55.18
2022-08-29T04:28:13.980Z,55.23
2022-08-29T04:30:51.241Z,55.20
2022-08-29T04:33:22.721Z,54.99
2022-08-29T04:35:50.826Z,54.64
2022-08-29T04:38:18.513Z,54.69
2022-08-29T04:40:46.124Z,54.66
2022-08-29T04:43:13.813Z,54.80
2022-08-29T04:45:41.430Z,54.93
2022-08-29T04:48:10.654Z,54.58
2022-08-29T04:50:40.196Z,54.63
2022-08-29T04:53:07.790Z,54.92
2022-08-29T04:55:35.383Z,54.99
2022-08-29T04:58:04.133Z,54.89
2022-08-29T05:00:31.775Z,54.96
2022-08-29T05:03:00.097Z,54.87
2022-08-29T05:05:27.848Z,55.01
2022-08-29T05:07:56.823Z,54.92
2022-08-29T05:10:26.279Z,54.69
2022-08-29T05:12:54.072Z,54.35
2022-08-29T05:15:21.954Z,54.20
2022-08-29T05:17:49.588Z,53.97
2022-08-29T05:20:17.815Z,54.43
2022-08-29T05:22:45.437Z,54.22
2022-08-29T05:25:18.189Z,54.51
2022-08-29T05:27:46.210Z,54.68
2022-08-29T05:30:14.009Z,54.93
2022-08-29T05:32:41.617Z,55.23
2022-08-29T05:35:09.654Z,54.97
2022-08-29T05:37:37.379Z,54.89
2022-08-29T05:40:05.460Z,54.83
2022-08-29T05:42:34.561Z,54.95
2022-08-29T05:45:03.620Z,55.30
2022-08-29T05:47:31.774Z,55.52
2022-08-29T05:49:59.740Z,55.96
2022-08-29T05:52:27.584Z,55.86
2022-08-29T05:54:55.197Z,56.08
2022-08-29T05:57:23.727Z,56.26
2022-08-29T05:59:53.525Z,56.42
2022-08-29T06:02:21.406Z,56.50
2022-08-29T06:04:49.212Z,56.56
2022-08-29T06:07:16.866Z,56.62
2022-08-29T06:09:44.549Z,56.47
2022-08-29T06:12:12.880Z,56.67
2022-08-29T06:14:40.502Z,57.06
2022-08-29T06:17:09.514Z,57.02
2022-08-29T06:19:37.173Z,57.11
2022-08-29T06:22:06.092Z,57.31
2022-08-29T06:24:37.918Z,57.44
2022-08-29T06:27:05.570Z,57.61
2022-08-29T06:29:42.890Z,57.69
2022-08-29T06:32:12.297Z,57.86
2022-08-29T06:34:39.912Z,57.92
2022-08-29T06:37:07.516Z,58.14
2022-08-29T06:39:35.136Z,58.19
2022-08-29T06:42:02.759Z,58.32
2022-08-29T06:44:31.246Z,58.41
2022-08-29T06:46:59.139Z,58.65
2022-08-29T06:49:28.513Z,59.10
2022-08-29T06:51:58.369Z,58.95
2022-08-29T06:54:28.095Z,59.15
2022-08-29T06:56:56.062Z,59.20
2022-08-29T06:59:23.710Z,59.20
2022-08-29T07:01:51.491Z,59.26
2022-08-29T07:04:20.545Z,59.34
2022-08-29T07:06:50.166Z,59.41
2022-08-29T07:09:17.872Z,59.22
2022-08-29T07:11:45.612Z,58.91
2022-08-29T07:14:13.521Z,59.03
2022-08-29T07:16:41.406Z,58.99
2022-08-29T07:19:10.077Z,58.86
2022-08-29T07:21:37.828Z,58.53
2022-08-29T07:24:07.026Z,58.31
2022-08-29T07:26:36.341Z,58.85
2022-08-29T07:29:06.973Z,57.87
2022-08-29T07:31:34.684Z,57.96
2022-08-29T07:34:03.274Z,57.50
2022-08-29T07:36:31.317Z,57.49
2022-08-29T07:38:58.913Z,57.40
2022-08-29T07:41:28.535Z,57.25
2022-08-29T07:43:56.151Z,57.16
2022-08-29T07:46:25.447Z,57.10
2022-08-29T07:48:53.580Z,57.22
2022-08-29T07:51:22.913Z,57.05
2022-08-29T07:53:50.716Z,56.80
2022-08-29T07:56:20.296Z,56.83
2022-08-29T07:58:49.394Z,56.84
2022-08-29T08:01:21.217Z,56.71
2022-08-29T08:03:49.929Z,56.84
2022-08-29T08:06:18.336Z,56.53
2022-08-29T08:08:46.093Z,56.60
2022-08-29T08:11:13.730Z,56.53
2022-08-29T08:13:41.418Z,56.59
2022-08-29T08:16:11.637Z,56.52
2022-08-29T08:18:40.254Z,56.54
2022-08-29T08:21:07.908Z,56.67
2022-08-29T08:23:36.159Z,56.60
2022-08-29T08:26:03.877Z,56.64
2022-08-29T08:28:31.573Z,56.40
2022-08-29T08:31:05.054Z,56.47
2022-08-29T08:33:35.495Z,56.73
2022-08-29T08:36:03.928Z,56.77
2022-08-29T08:38:31.883Z,56.54
2022-08-29T08:41:02.097Z,56.71
2022-08-29T08:43:33.497Z,56.76
2022-08-29T08:46:01.231Z,56.69
2022-08-29T08:48:34.389Z,56.39
2022-08-29T08:51:04.733Z,56.74
2022-08-29T08:53:34.419Z,56.58
2022-08-29T08:56:04.753Z,57.08
2022-08-29T08:58:33.669Z,56.82
2022-08-29T09:01:03.632Z,56.77
2022-08-29T09:03:52.644Z,57.04
2022-08-29T09:06:28.464Z,57.40
2022-08-29T09:08:59.262Z,56.95
2022-08-29T09:11:29.825Z,57.08
2022-08-29T09:14:01.049Z,57.20
2022-08-29T09:16:31.504Z,57.32
2022-08-29T09:19:01.817Z,57.18
2022-08-29T09:21:46.705Z,57.66
2022-08-29T09:24:18.313Z,58.03
2022-08-29T09:26:45.917Z,58.14
2022-08-29T09:29:13.941Z,58.03
2022-08-29T09:31:42.024Z,58.83
2022-08-29T09:34:11.926Z,58.32
2022-08-29T09:36:47.660Z,58.36
2022-08-29T09:39:22.797Z,58.26
2022-08-29T09:41:52.222Z,58.28
2022-08-29T09:44:22.197Z,58.52
2022-08-29T09:47:04.814Z,58.74
2022-08-29T09:49:33.161Z,58.56
2022-08-29T09:52:09.761Z,58.64
2022-08-29T09:54:37.416Z,58.50
2022-08-29T09:57:10.906Z,58.60
2022-08-29T09:59:40.701Z,58.56
2022-08-29T10:02:30.985Z,58.43
2022-08-29T10:05:01.317Z,58.33
2022-08-29T10:07:31.181Z,58.47
2022-08-29T10:10:01.514Z,58.63
2022-08-29T10:12:41.782Z,58.34
2022-08-29T10:15:23.449Z,58.65
2022-08-29T10:18:19.036Z,58.45
2022-08-29T10:20:52.396Z,58.66
2022-08-29T10:23:25.444Z,58.60
2022-08-29T10:25:53.264Z,58.50
2022-08-29T10:28:23.566Z,58.51
2022-08-29T10:30:54.010Z,58.62
2022-08-29T10:33:32.054Z,58.35
2022-08-29T10:36:01.732Z,58.48
2022-08-29T10:38:40.827Z,58.56
2022-08-29T10:41:12.496Z,58.45
2022-08-29T10:43:40.578Z,58.30
2022-08-29T10:46:16.403Z,58.37
2022-08-29T10:48:48.944Z,58.79
2022-08-29T10:51:20.525Z,58.59
2022-08-29T10:53:51.897Z,58.56
2022-08-29T10:56:21.731Z,58.93
2022-08-29T10:58:56.882Z,58.56
2022-08-29T11:01:26.462Z,58.49
2022-08-29T11:03:59.643Z,58.46
2022-08-29T11:06:30.204Z,58.55
2022-08-29T11:09:03.366Z,58.35
2022-08-29T11:11:31.172Z,58.43
2022-08-29T11:14:05.417Z,58.26
2022-08-29T11:16:35.658Z,58.27
2022-08-29T11:19:06.640Z,58.11
2022-08-29T11:21:36.798Z,58.34
2022-08-29T11:24:06.198Z,58.23
2022-08-29T11:26:42.625Z,57.95
2022-08-29T11:29:18.342Z,57.90
2022-08-29T11:31:50.510Z,57.91
2022-08-29T11:34:46.469Z,57.63
2022-08-29T11:37:35.537Z,57.64
2022-08-29T11:40:08.369Z,57.60
2022-08-29T11:42:52.773Z,57.58
2022-08-29T11:45:25.065Z,57.67
2022-08-29T11:47:59.325Z,57.63
2022-08-29T11:50:32.826Z,57.54
2022-08-29T11:53:05.770Z,57.60
2022-08-29T11:55:36.293Z,57.51
2022-08-29T11:58:09.823Z,57.36
2022-08-29T12:00:47.216Z,57.62
2022-08-29T12:03:45.465Z,57.50
2022-08-29T12:06:26.702Z,57.14
2022-08-29T12:09:00.656Z,57.52
2022-08-29T12:12:14.986Z,57.38
2022-08-29T12:14:43.283Z,57.26
2022-08-29T12:17:12.338Z,57.39
2022-08-29T12:19:51.886Z,57.30
2022-08-29T12:22:59.596Z,57.14
2022-08-29T12:25:46.155Z,57.14
2022-08-29T12:28:32.143Z,57.10
2022-08-29T12:31:15.479Z,57.08
2022-08-29T12:33:55.304Z,56.98
2022-08-29T12:36:31.076Z,57.19
2022-08-29T12:39:10.527Z,57.00
2022-08-29T12:41:49.701Z,56.98
2022-08-29T12:44:21.613Z,56.99
2022-08-29T12:46:51.332Z,56.99
2022-08-29T12:49:21.052Z,57.22
2022-08-29T12:51:49.822Z,57.23
2022-08-29T12:54:29.445Z,57.04
2022-08-29T12:56:57.746Z,57.00
2022-08-29T12:59:29.091Z,57.03
2022-08-29T13:01:58.148Z,57.02
2022-08-29T13:04:31.945Z,57.17
2022-08-29T13:07:00.982Z,57.22
2022-08-29T13:09:29.444Z,57.11
2022-08-29T13:12:15.153Z,57.04
2022-08-29T13:14:52.380Z,57.03
2022-08-29T13:17:21.113Z,56.91
2022-08-29T13:20:25.777Z,56.87
2022-08-29T13:23:05.180Z,57.12
2022-08-29T13:25:33.722Z,56.89
2022-08-29T13:28:02.082Z,56.95
2022-08-29T13:30:31.108Z,56.81
2022-08-29T13:32:58.812Z,56.90
2022-08-29T13:35:31.505Z,56.93
2022-08-29T13:38:11.324Z,56.86
2022-08-29T13:40:43.583Z,56.88
2022-08-29T13:43:27.126Z,56.94
2022-08-29T13:46:09.702Z,56.65
2022-08-29T13:48:39.409Z,56.59
2022-08-29T13:51:07.335Z,56.48
2022-08-29T13:53:35.138Z,56.53
2022-08-29T13:56:03.145Z,56.48
2022-08-29T13:58:32.175Z,56.62
2022-08-29T14:00:59.912Z,56.53
2022-08-29T14:03:29.766Z,56.62
2022-08-29T14:05:58.177Z,56.53
2022-08-29T14:08:25.929Z,56.59
2022-08-29T14:10:53.557Z,56.58
2022-08-29T14:13:21.174Z,56.41
2022-08-29T14:15:49.050Z,56.53
2022-08-29T14:18:17.026Z,56.56
2022-08-29T14:20:46.000Z,56.46
2022-08-29T14:23:13.825Z,56.53
2022-08-29T14:25:41.480Z,56.42
2022-08-29T14:28:09.433Z,56.48
2022-08-29T14:30:40.450Z,56.46
2022-08-29T14:33:20.127Z,56.62
2022-08-29T14:35:49.274Z,56.41
2022-08-29T14:38:17.258Z,56.35
2022-08-29T14:40:45.213Z,56.36
2022-08-29T14:43:13.805Z,56.38
2022-08-29T14:45:41.442Z,56.32
2022-08-29T14:48:09.073Z,56.37
2022-08-29T14:50:36.717Z,56.37
2022-08-29T14:53:05.740Z,56.28
2022-08-29T14:55:33.639Z,56.43
2022-08-29T14:58:01.284Z,56.22
2022-08-29T15:00:29.866Z,56.29
2022-08-29T15:02:57.742Z,56.17
2022-08-29T15:05:25.384Z,56.16
2022-08-29T15:07:53.066Z,56.15
2022-08-29T15:10:23.748Z,56.16
2022-08-29T15:12:51.410Z,56.29
2022-08-29T15:15:20.623Z,56.35
2022-08-29T15:17:48.339Z,56.28
2022-08-29T15:20:35.516Z,56.15
2022-08-29T15:23:03.858Z,56.27
2022-08-29T15:25:32.901Z,56.27
2022-08-29T15:28:00.541Z,56.16
2022-08-29T15:30:28.229Z,56.20
2022-08-29T15:32:55.896Z,56.18
2022-08-29T15:35:23.548Z,56.38
2022-08-29T15:37:51.267Z,55.99
2022-08-29T15:40:19.421Z,56.20
2022-08-29T15:42:48.649Z,56.09
2022-08-29T15:45:16.477Z,56.29
2022-08-29T15:47:46.122Z,56.17
2022-08-29T15:50:14.424Z,56.08
2022-08-29T15:52:42.091Z,55.88
2022-08-29T15:55:10.005Z,55.93
2022-08-29T15:57:40.257Z,55.97
2022-08-29T16:00:30.158Z,55.94
2022-08-29T16:03:00.257Z,55.90
2022-08-29T16:05:28.464Z,55.84
2022-08-29T16:07:56.219Z,55.96
2022-08-29T16:10:23.897Z,55.89
2022-08-29T16:12:51.636Z,56.00
2022-08-29T16:15:19.277Z,55.98
2022-08-29T16:17:48.897Z,55.82
2022-08-29T16:20:16.574Z,56.14
2022-08-29T16:22:44.314Z,55.84
2022-08-29T16:25:12.737Z,55.84
2022-08-29T16:27:40.400Z,55.75
2022-08-29T16:30:10.375Z,55.93
2022-08-29T16:32:38.224Z,55.81
2022-08-29T16:35:08.517Z,55.87
2022-08-29T16:37:36.213Z,55.80
2022-08-29T16:40:05.232Z,55.64
2022-08-29T16:42:33.861Z,55.69
2022-08-29T16:45:01.444Z,55.63
2022-08-29T16:47:29.037Z,55.76
2022-08-29T16:49:56.669Z,55.60
2022-08-29T16:52:25.664Z,55.55
2022-08-29T16:54:53.831Z,55.58
2022-08-29T16:57:21.782Z,55.68
2022-08-29T16:59:49.453Z,55.54
2022-08-29T17:02:17.164Z,55.49
2022-08-29T17:04:46.523Z,55.62
2022-08-29T17:07:14.289Z,55.45
2022-08-29T17:09:42.153Z,55.58
2022-08-29T17:12:09.138Z,55.40
2022-08-29T17:14:36.525Z,55.54
2022-08-29T17:17:04.272Z,55.47
2022-08-29T17:19:33.467Z,55.43
2022-08-29T17:22:01.652Z,55.45
2022-08-29T17:24:29.346Z,55.63
2022-08-29T17:26:58.380Z,55.24
2022-08-29T17:29:26.081Z,55.27
2022-08-29T17:31:53.906Z,55.55
2022-08-29T17:34:21.721Z,55.47
2022-08-29T17:36:49.687Z,55.49
2022-08-29T17:39:17.378Z,55.33
2022-08-29T17:41:50.465Z,55.42
2022-08-29T17:44:20.134Z,55.40
2022-08-29T17:46:47.765Z,55.39
2022-08-29T17:49:15.390Z,55.56
2022-08-29T17:51:43.162Z,55.38
2022-08-29T17:54:12.571Z,55.53
2022-08-29T17:56:44.793Z,55.46
2022-08-29T17:59:12.795Z,55.53
2022-08-29T18:01:41.833Z,55.68
2022-08-29T18:04:09.642Z,55.63
2022-08-29T18:06:37.370Z,55.68
2022-08-29T18:09:05.314Z,55.59
2022-08-29T18:11:33.002Z,55.97
2022-08-29T18:14:01.246Z,56.04
2022-08-29T18:16:29.198Z,56.15
2022-08-29T18:18:58.334Z,56.02
2022-08-29T18:21:26.045Z,56.07
2022-08-29T18:23:53.720Z,56.01
2022-08-29T18:26:21.354Z,56.16
2022-08-29T18:28:49.059Z,56.15
2022-08-29T18:31:18.652Z,56.45
2022-08-29T18:34:00.045Z,56.41
2022-08-29T18:36:30.231Z,55.97
2022-08-29T18:38:58.152Z,56.30
2022-08-29T18:41:25.832Z,55.77
2022-08-29T18:43:53.627Z,56.01
2022-08-29T18:46:21.361Z,56.07
2022-08-29T18:48:49.256Z,55.87
2022-08-29T18:51:16.869Z,56.24
2022-08-29T18:53:45.963Z,55.74
2022-08-29T18:56:13.611Z,56.48
2022-08-29T18:58:44.290Z,56.23
2022-08-29T19:01:12.843Z,55.91
2022-08-29T19:03:41.604Z,56.54
2022-08-29T19:06:10.251Z,56.36
2022-08-29T19:08:38.453Z,56.47
2022-08-29T19:11:08.018Z,56.17
2022-08-29T19:13:36.432Z,56.06
2022-08-29T19:16:04.854Z,55.98
2022-08-29T19:18:32.872Z,55.89
2022-08-29T19:21:02.406Z,55.70
2022-08-29T19:23:30.276Z,55.41
2022-08-29T19:25:58.087Z,55.61
2022-08-29T19:28:27.523Z,55.53
2022-08-29T19:30:55.393Z,55.50
2022-08-29T19:33:23.612Z,55.54
2022-08-29T19:35:53.524Z,55.48
2022-08-29T19:38:21.921Z,55.55
2022-08-29T19:40:52.243Z,55.56
2022-08-29T19:43:20.742Z,55.40
2022-08-29T19:45:49.808Z,55.45
2022-08-29T19:48:19.294Z,55.54
2022-08-29T19:50:47.804Z,55.51
2022-08-29T19:53:16.768Z,55.37
2022-08-29T19:55:52.721Z,55.49
2022-08-29T19:58:22.642Z,55.47
2022-08-29T20:00:58.001Z,55.51
2022-08-29T20:03:27.565Z,55.45
2022-08-29T20:05:55.548Z,55.50
2022-08-29T20:08:23.604Z,55.38
2022-08-29T20:10:53.412Z,55.54
2022-08-29T20:13:21.097Z,55.36
2022-08-29T20:15:49.806Z,55.67
2022-08-29T20:18:19.728Z,55.62
2022-08-29T20:20:47.841Z,55.51
2022-08-29T20:23:17.310Z,55.53
2022-08-29T20:25:45.723Z,55.48
2022-08-29T20:28:15.615Z,55.52
2022-08-29T20:30:43.793Z,55.47
2022-08-29T20:33:11.525Z,55.47
2022-08-29T20:35:58.785Z,55.26
2022-08-29T20:38:27.090Z,55.50
2022-08-29T20:40:54.896Z,55.57
2022-08-29T20:43:22.586Z,55.25
2022-08-29T20:45:50.766Z,55.49
2022-08-29T20:48:18.632Z,55.39
2022-08-29T20:50:47.753Z,55.30
2022-08-29T20:53:31.914Z,55.33
2022-08-29T20:56:00.727Z,55.34
2022-08-29T20:58:30.096Z,55.19
2022-08-29T21:00:58.017Z,55.09
2022-08-29T21:03:43.168Z,54.99
2022-08-29T21:06:12.463Z,55.30
2022-08-29T21:08:41.046Z,55.17
2022-08-29T21:11:08.969Z,55.23
2022-08-29T21:13:41.529Z,55.26
2022-08-29T21:16:09.325Z,55.14
2022-08-29T21:18:37.121Z,55.50
2022-08-29T21:21:04.788Z,55.16
2022-08-29T21:23:34.191Z,55.25
2022-08-29T21:26:02.061Z,55.19
2022-08-29T21:28:32.757Z,55.24
2022-08-29T21:31:04.396Z,55.31
2022-08-29T21:33:33.477Z,55.15
2022-08-29T21:36:01.674Z,55.18
2022-08-29T21:38:29.505Z,55.08
2022-08-29T21:40:59.025Z,55.28
2022-08-29T21:43:26.852Z,55.28
2022-08-29T21:45:54.700Z,55.06
2022-08-29T21:48:22.406Z,55.14
2022-08-29T21:50:54.965Z,55.02
2022-08-29T21:53:22.733Z,55.14
2022-08-29T21:55:50.450Z,55.09
2022-08-29T21:58:20.266Z,55.28
2022-08-29T22:00:49.186Z,55.29
2022-08-29T22:03:17.183Z,55.15
2022-08-29T22:05:45.194Z,55.30
2022-08-29T22:08:14.104Z,55.23
2022-08-29T22:10:42.244Z,55.28
2022-08-29T22:13:10.126Z,55.13
2022-08-29T22:15:57.031Z,55.36
2022-08-29T22:18:24.910Z,55.24
2022-08-29T22:20:55.545Z,55.24
2022-08-29T22:23:24.339Z,55.13
2022-08-29T22:25:52.482Z,55.06
2022-08-29T22:28:20.143Z,55.39
2022-08-29T22:30:49.343Z,55.53
2022-08-29T22:33:17.047Z,55.17
2022-08-29T22:35:45.585Z,55.19
2022-08-29T22:38:13.336Z,55.34
2022-08-29T22:40:41.193Z,55.67
2022-08-29T22:43:09.221Z,55.43
2022-08-29T22:45:36.882Z,55.44
2022-08-29T22:48:06.250Z,55.36
2022-08-29T22:50:34.164Z,55.21
2022-08-29T22:53:02.120Z,55.54
2022-08-29T22:57:57.275Z,55.58
2022-08-29T23:00:26.410Z,55.43
2022-08-29T23:02:54.352Z,55.34
2022-08-29T23:05:24.144Z,55.49
2022-08-29T23:07:51.959Z,55.74
2022-08-29T23:10:21.861Z,55.24
2022-08-29T23:12:49.661Z,55.28
2022-08-29T23:15:18.259Z,55.37
2022-08-29T23:17:46.107Z,55.38
2022-08-29T23:20:14.193Z,55.52
2022-08-29T23:22:43.321Z,55.38
2022-08-29T23:25:12.038Z,55.41
2022-08-29T23:27:39.885Z,55.61
2022-08-29T23:30:09.089Z,55.54
2022-08-29T23:32:36.728Z,55.57
2022-08-29T23:35:05.605Z,55.76
2022-08-29T23:37:33.375Z,55.87
2022-08-29T23:40:02.521Z,55.71
2022-08-29T23:42:30.675Z,55.52
2022-08-29T23:44:58.469Z,55.53
2022-08-29T23:47:26.097Z,55.67
2022-08-29T23:49:53.713Z,55.65
2022-08-29T23:52:21.343Z,55.58
2022-08-29T23:54:49.065Z,55.75
2022-08-29T23:57:18.180Z,55.56
